createdAt,value
2022-12-11T00:00:57.278Z,0
2022-12-11T00:04:22.527Z,0
2022-12-11T00:07:47.824Z,0
2022-12-11T00:11:13.057Z,0
2022-12-11T00:14:38.385Z,0
2022-12-11T00:18:03.603Z,0
2022-12-11T00:21:28.854Z,0
2022-12-11T00:24:54.109Z,0
2022-12-11T00:28:19.375Z,0
2022-12-11T00:31:44.730Z,0
2022-12-11T00:35:10.853Z,0
2022-12-11T00:38:35.863Z,0
2022-12-11T00:42:01.172Z,0
2022-12-11T00:45:26.406Z,0
2022-12-11T00:48:51.713Z,0
2022-12-11T00:52:16.930Z,0
2022-12-11T00:55:42.198Z,0
2022-12-11T00:59:07.479Z,0
2022-12-11T01:02:32.800Z,0
2022-12-11T01:05:58.078Z,0
2022-12-11T01:09:23.296Z,0
2022-12-11T01:12:48.606Z,0
2022-12-11T01:16:13.928Z,0
2022-12-11T01:19:39.168Z,0
2022-12-11T01:23:04.428Z,0
2022-12-11T01:26:29.671Z,0
2022-12-11T01:29:54.932Z,0
2022-12-11T01:33:20.176Z,0
2022-12-11T01:36:45.456Z,0
2022-12-11T01:40:10.752Z,0
2022-12-11T01:43:36.041Z,0
2022-12-11T01:47:01.279Z,0
2022-12-11T01:50:26.538Z,0
2022-12-11T01:53:51.815Z,0
2022-12-11T01:57:17.100Z,0
2022-12-11T02:00:42.411Z,0
2022-12-11T02:04:07.641Z,0
2022-12-11T02:07:32.876Z,0
2022-12-11T02:10:58.125Z,0
2022-12-11T02:14:23.374Z,0
2022-12-11T02:17:48.634Z,0
2022-12-11T02:21:13.878Z,0
2022-12-11T02:24:39.148Z,0
2022-12-11T02:28:04.397Z,0
2022-12-11T02:31:29.709Z,0
2022-12-11T02:34:54.938Z,0
2022-12-11T02:38:20.157Z,0
2022-12-11T02:41:45.431Z,0
2022-12-11T02:45:11.056Z,0
2022-12-11T02:48:35.972Z,0
2022-12-11T02:52:01.261Z,0
2022-12-11T02:55:26.523Z,0
2022-12-11T02:58:56.887Z,0
2022-12-11T03:02:17.149Z,0
2022-12-11T03:05:42.345Z,0
2022-12-11T03:09:07.678Z,0
2022-12-11T03:12:32.905Z,0
2022-12-11T03:15:58.250Z,0
2022-12-11T03:19:23.451Z,0
2022-12-11T03:22:48.733Z,0
2022-12-11T03:26:14.018Z,0
2022-12-11T03:29:39.296Z,0
2022-12-11T03:33:04.591Z,0
2022-12-11T03:36:29.873Z,0
2022-12-11T03:39:55.128Z,0
2022-12-11T03:43:20.428Z,0
2022-12-11T03:46:45.666Z,0
2022-12-11T03:50:10.934Z,0
2022-12-11T03:53:36.190Z,0
2022-12-11T03:57:01.479Z,0
2022-12-11T04:00:26.814Z,0
2022-12-11T04:03:52.084Z,0
2022-12-11T04:07:17.310Z,0
2022-12-11T04:10:42.592Z,0
2022-12-11T04:14:07.834Z,0
2022-12-11T04:17:33.141Z,0
2022-12-11T04:20:58.369Z,0
2022-12-11T04:24:23.635Z,0
2022-12-11T04:27:48.896Z,0
2022-12-11T04:31:14.264Z,0
2022-12-11T04:34:39.474Z,0
2022-12-11T04:38:04.684Z,0
2022-12-11T04:41:29.930Z,0
2022-12-11T04:44:55.650Z,0
2022-12-11T04:48:20.873Z,0
2022-12-11T04:51:46.180Z,0
2022-12-11T04:55:11.619Z,0
2022-12-11T04:58:36.677Z,0
2022-12-11T05:02:01.991Z,0
2022-12-11T05:05:27.160Z,0
2022-12-11T05:08:52.436Z,0
2022-12-11T05:12:17.664Z,0
2022-12-11T05:15:43.002Z,0
2022-12-11T05:19:08.208Z,0
2022-12-11T05:22:33.479Z,0
2022-12-11T05:25:58.757Z,0
2022-12-11T05:29:23.997Z,0
2022-12-11T05:32:49.257Z,0
2022-12-11T05:36:14.525Z,0
2022-12-11T05:39:40.782Z,0
2022-12-11T05:43:06.060Z,0
2022-12-11T05:46:31.343Z,0
2022-12-11T05:49:56.525Z,0
2022-12-11T05:53:21.779Z,0
2022-12-11T05:56:47.043Z,0
2022-12-11T06:00:12.341Z,0
2022-12-11T06:03:37.545Z,0
2022-12-11T06:07:02.827Z,0
2022-12-11T06:10:28.085Z,0
2022-12-11T06:13:53.295Z,0
2022-12-11T06:17:18.516Z,0
2022-12-11T06:20:43.724Z,0
2022-12-11T06:24:08.920Z,0
2022-12-11T06:27:34.098Z,0
2022-12-11T06:30:59.304Z,0
2022-12-11T06:34:24.539Z,0
2022-12-11T06:37:49.697Z,0
2022-12-11T06:41:14.897Z,0
2022-12-11T06:44:40.085Z,0
2022-12-11T06:48:05.268Z,0
2022-12-11T06:51:30.483Z,0
2022-12-11T06:54:55.629Z,0
2022-12-11T06:58:20.820Z,0
2022-12-11T07:01:46.026Z,0
2022-12-11T07:05:11.520Z,0
2022-12-11T07:08:36.428Z,0
2022-12-11T07:12:01.640Z,0
2022-12-11T07:15:26.853Z,0
2022-12-11T07:18:52.159Z,0
2022-12-11T07:22:17.442Z,0
2022-12-11T07:25:42.761Z,0
2022-12-11T07:29:07.875Z,0
2022-12-11T07:32:33.267Z,6
2022-12-11T07:35:58.461Z,6
2022-12-11T07:39:23.706Z,6
2022-12-11T07:42:49.050Z,6
2022-12-11T07:46:14.336Z,11
2022-12-11T07:49:39.566Z,11
2022-12-11T07:53:04.768Z,11
2022-12-11T07:56:30.080Z,17
2022-12-11T07:59:55.386Z,17
2022-12-11T08:03:20.591Z,17
2022-12-11T08:06:45.887Z,23
2022-12-11T08:10:22.815Z,23
2022-12-11T08:14:33.076Z,23
2022-12-11T08:17:58.348Z,23
2022-12-11T08:21:49.121Z,23
2022-12-11T08:25:14.380Z,17
2022-12-11T08:28:39.641Z,28
2022-12-11T08:32:09.033Z,39
2022-12-11T08:35:30.190Z,39
2022-12-11T08:38:55.434Z,39
2022-12-11T08:42:20.683Z,39
2022-12-11T08:45:45.995Z,34
2022-12-11T08:49:23.415Z,39
2022-12-11T08:52:48.669Z,34
2022-12-11T08:56:13.924Z,34
2022-12-11T09:00:05.598Z,51
2022-12-11T09:03:35.740Z,56
2022-12-11T09:07:00.976Z,73
2022-12-11T09:10:26.293Z,96
2022-12-11T09:13:51.519Z,96
2022-12-11T09:17:16.767Z,101
2022-12-11T09:20:42.030Z,79
2022-12-11T09:24:07.332Z,68
2022-12-11T09:27:32.605Z,84
2022-12-11T09:30:57.907Z,113
2022-12-11T09:34:28.829Z,101
2022-12-11T09:37:48.449Z,113
2022-12-11T09:41:13.729Z,141
2022-12-11T09:44:39.015Z,135
2022-12-11T09:48:04.236Z,152
2022-12-11T09:51:29.486Z,129
2022-12-11T09:54:54.764Z,96
2022-12-11T09:58:20.027Z,84
2022-12-11T10:01:45.396Z,84
2022-12-11T10:05:10.809Z,101
2022-12-11T10:08:35.894Z,118
2022-12-11T10:12:01.185Z,73
2022-12-11T10:15:26.575Z,56
2022-12-11T10:18:51.735Z,56
2022-12-11T10:22:16.951Z,90
2022-12-11T10:25:42.199Z,68
2022-12-11T10:29:07.446Z,79
2022-12-11T10:32:32.710Z,101
2022-12-11T10:35:57.974Z,113
2022-12-11T10:39:23.213Z,101
2022-12-11T10:42:48.484Z,107
2022-12-11T10:46:13.780Z,124
2022-12-11T10:49:39.016Z,129
2022-12-11T10:53:04.293Z,141
2022-12-11T10:56:29.529Z,146
2022-12-11T10:59:54.769Z,146
2022-12-11T11:03:20.050Z,146
2022-12-11T11:06:45.322Z,118
2022-12-11T11:10:11.251Z,113
2022-12-11T11:13:36.469Z,124
2022-12-11T11:17:01.719Z,129
2022-12-11T11:20:27.001Z,135
2022-12-11T11:23:53.546Z,135
2022-12-11T11:27:17.548Z,135
2022-12-11T11:30:42.845Z,129
2022-12-11T11:34:08.110Z,124
2022-12-11T11:37:33.359Z,96
2022-12-11T11:41:04.335Z,79
2022-12-11T11:44:23.969Z,68
2022-12-11T11:47:49.195Z,62
2022-12-11T11:51:14.502Z,68
2022-12-11T11:54:39.805Z,84
2022-12-11T11:58:05.075Z,113
2022-12-11T12:01:30.383Z,101
2022-12-11T12:04:55.665Z,90
2022-12-11T12:08:21.072Z,79
2022-12-11T12:11:46.363Z,84
2022-12-11T12:15:11.941Z,79
2022-12-11T12:18:36.934Z,73
2022-12-11T12:22:02.196Z,73
2022-12-11T12:25:27.473Z,73
2022-12-11T12:28:52.774Z,73
2022-12-11T12:32:18.041Z,84
2022-12-11T12:35:43.365Z,79
2022-12-11T12:39:10.573Z,96
2022-12-11T12:42:35.833Z,101
2022-12-11T12:46:03.476Z,96
2022-12-11T12:49:30.698Z,96
2022-12-11T12:52:55.973Z,101
2022-12-11T12:56:21.248Z,101
2022-12-11T12:59:46.521Z,101
2022-12-11T13:03:13.566Z,107
2022-12-11T13:06:38.876Z,107
2022-12-11T13:10:04.180Z,101
2022-12-11T13:13:29.499Z,101
2022-12-11T13:16:57.600Z,96
2022-12-11T13:20:22.918Z,96
2022-12-11T13:23:50.534Z,84
2022-12-11T13:27:15.801Z,84
2022-12-11T13:30:41.033Z,73
2022-12-11T13:34:06.348Z,68
2022-12-11T13:37:31.634Z,56
2022-12-11T13:40:56.953Z,56
2022-12-11T13:44:22.266Z,51
2022-12-11T13:47:47.468Z,45
2022-12-11T13:51:12.725Z,45
2022-12-11T13:54:37.999Z,51
2022-12-11T13:58:03.296Z,51
2022-12-11T14:01:28.588Z,51
2022-12-11T14:04:53.829Z,51
2022-12-11T14:08:19.124Z,45
2022-12-11T14:11:44.326Z,39
2022-12-11T14:15:09.757Z,39
2022-12-11T14:18:34.896Z,34
2022-12-11T14:22:00.199Z,34
2022-12-11T14:25:25.504Z,28
2022-12-11T14:28:51.254Z,28
2022-12-11T15:05:40.487Z,0
2022-12-11T15:09:00.592Z,0
2022-12-11T15:12:25.866Z,0
2022-12-11T15:15:51.238Z,0
2022-12-11T15:19:17.185Z,0
2022-12-11T15:22:42.520Z,0
2022-12-11T15:26:07.759Z,0
2022-12-11T15:29:33.237Z,0
2022-12-11T15:32:58.567Z,0
2022-12-11T15:36:23.839Z,0
2022-12-11T15:39:49.134Z,0
2022-12-11T15:43:14.367Z,0
2022-12-11T15:46:39.669Z,0
2022-12-11T15:50:04.899Z,0
2022-12-11T15:53:30.170Z,0
2022-12-11T15:56:55.585Z,0
2022-12-11T16:00:20.699Z,0
2022-12-11T16:03:45.955Z,0
2022-12-11T16:07:11.271Z,0
2022-12-11T16:10:36.536Z,0
2022-12-11T16:14:01.803Z,0
2022-12-11T16:17:27.055Z,0
2022-12-11T16:20:52.320Z,0
2022-12-11T16:24:17.560Z,0
2022-12-11T16:27:42.827Z,0
2022-12-11T16:31:08.216Z,0
2022-12-11T16:34:33.467Z,0
2022-12-11T16:37:58.718Z,0
2022-12-11T16:41:24.002Z,0
2022-12-11T16:44:49.247Z,0
2022-12-11T16:48:14.635Z,0
2022-12-11T16:51:39.770Z,0
2022-12-11T16:55:05.019Z,0
2022-12-11T16:58:30.232Z,0
2022-12-11T17:01:55.564Z,0
2022-12-11T17:05:21.151Z,0
2022-12-11T17:08:46.391Z,0
2022-12-11T17:12:11.651Z,0
2022-12-11T17:15:37.002Z,0
2022-12-11T17:19:02.202Z,0
2022-12-11T17:22:28.389Z,0
2022-12-11T17:25:53.663Z,0
2022-12-11T17:29:18.953Z,0
2022-12-11T17:32:44.307Z,0
2022-12-11T17:36:09.588Z,0
2022-12-11T17:39:34.954Z,0
2022-12-11T17:43:00.188Z,0
2022-12-11T17:46:25.575Z,0
2022-12-11T17:49:50.851Z,0
2022-12-11T17:53:16.123Z,0
2022-12-11T17:56:41.422Z,0
2022-12-11T18:00:06.748Z,0
2022-12-11T18:03:32.012Z,0
2022-12-11T18:06:57.232Z,0
2022-12-11T18:10:22.538Z,0
2022-12-11T18:13:47.804Z,0
2022-12-11T18:17:13.250Z,0
2022-12-11T18:20:38.516Z,0
2022-12-11T18:24:03.792Z,0
2022-12-11T18:27:29.092Z,0
2022-12-11T18:30:54.389Z,0
2022-12-11T18:34:25.624Z,0
2022-12-11T18:37:44.949Z,0
2022-12-11T18:41:10.189Z,0
2022-12-11T18:44:35.499Z,0
2022-12-11T18:48:00.772Z,0
2022-12-11T18:51:26.013Z,0
2022-12-11T18:54:51.259Z,0
2022-12-11T18:58:16.526Z,0
2022-12-11T19:01:41.790Z,0
2022-12-11T19:05:06.974Z,0
2022-12-11T19:08:32.328Z,0
2022-12-11T19:11:57.481Z,0
2022-12-11T19:15:24.066Z,0
2022-12-11T19:18:48.032Z,0
2022-12-11T19:22:13.295Z,0
2022-12-11T19:25:38.510Z,0
2022-12-11T19:29:03.798Z,0
2022-12-11T19:32:33.283Z,0
2022-12-11T19:35:54.304Z,0
2022-12-11T19:39:19.559Z,0
2022-12-11T19:42:44.851Z,0
2022-12-11T19:46:10.227Z,0
2022-12-11T19:49:35.593Z,0
2022-12-11T19:53:00.921Z,0
2022-12-11T19:56:26.190Z,0
2022-12-11T19:59:56.897Z,0
2022-12-11T20:03:16.731Z,0
2022-12-11T20:06:42.089Z,0
2022-12-11T20:10:07.393Z,0
2022-12-11T20:13:32.667Z,0
2022-12-11T20:17:14.417Z,0
2022-12-11T20:20:23.252Z,0
2022-12-11T20:23:48.525Z,0
2022-12-11T20:27:13.849Z,0
2022-12-11T20:30:39.108Z,0
2022-12-11T20:34:04.385Z,0
2022-12-11T20:37:29.645Z,0
2022-12-11T20:40:54.932Z,0
2022-12-11T20:44:25.998Z,0
2022-12-11T20:47:45.550Z,0
2022-12-11T20:51:10.707Z,0
2022-12-11T20:54:35.971Z,0
2022-12-11T20:58:01.260Z,0
2022-12-11T21:01:26.597Z,0
2022-12-11T21:04:51.861Z,0
2022-12-11T21:08:17.313Z,0
2022-12-11T21:11:42.525Z,0
2022-12-11T21:15:07.780Z,0
2022-12-11T21:18:33.073Z,0
2022-12-11T21:21:58.352Z,0
2022-12-11T21:25:23.641Z,0
2022-12-11T21:28:48.883Z,0
2022-12-11T21:32:14.169Z,0
2022-12-11T21:35:39.451Z,0
2022-12-11T21:39:04.684Z,0
2022-12-11T21:42:29.991Z,0
2022-12-11T21:46:02.633Z,0
2022-12-11T21:49:20.543Z,0
2022-12-11T21:52:45.843Z,0
2022-12-11T21:56:11.122Z,0
2022-12-11T21:59:36.400Z,0
2022-12-11T22:03:01.670Z,0
2022-12-11T22:06:26.962Z,0
2022-12-11T22:09:52.228Z,0
2022-12-11T22:13:17.505Z,0
2022-12-11T22:16:48.631Z,0
2022-12-11T22:20:08.063Z,0
2022-12-11T22:23:33.286Z,0
2022-12-11T22:26:58.531Z,0
2022-12-11T22:30:23.803Z,0
2022-12-11T22:33:49.092Z,0
2022-12-11T22:37:14.402Z,0
2022-12-11T22:40:39.631Z,0
2022-12-11T22:44:04.909Z,0
2022-12-11T22:47:30.176Z,0
2022-12-11T22:50:55.473Z,0
2022-12-11T22:54:20.790Z,0
2022-12-11T22:57:46.092Z,0
2022-12-11T23:01:11.353Z,0
2022-12-11T23:04:36.611Z,0
2022-12-11T23:08:01.940Z,0
2022-12-11T23:11:27.108Z,0
2022-12-11T23:14:52.374Z,0
2022-12-11T23:18:17.620Z,0
2022-12-11T23:21:42.889Z,0
2022-12-11T23:25:08.133Z,0
2022-12-11T23:28:33.399Z,0
2022-12-11T23:31:58.638Z,0
2022-12-11T23:35:23.993Z,0
2022-12-11T23:38:54.238Z,0
2022-12-11T23:42:14.505Z,0
2022-12-11T23:45:39.785Z,0
2022-12-11T23:49:05.017Z,0
2022-12-11T23:52:30.290Z,0
2022-12-11T23:55:55.580Z,0
2022-12-11T23:59:20.835Z,0
